createdAt,value
2019-01-04T00:02:36.696Z,2.40
2019-01-04T00:05:23.286Z,2.50
2019-01-04T00:08:40.459Z,2.50
2019-01-04T00:11:41.550Z,2.40
2019-01-04T00:13:53.546Z,2.50
2019-01-04T00:16:58.181Z,2.50
2019-01-04T00:19:29.430Z,2.50
2019-01-04T00:22:13.984Z,2.50
2019-01-04T00:24:44.521Z,2.50
2019-01-04T00:27:40.079Z,2.50
2019-01-04T00:30:20.393Z,2.50
2019-01-04T00:32:58.918Z,2.50
2019-01-04T00:35:37.058Z,2.40
2019-01-04T00:38:27.095Z,2.40
2019-01-04T00:41:02.999Z,2.50
2019-01-04T00:43:40.375Z,2.60
2019-01-04T00:46:20.409Z,2.60
2019-01-04T00:49:01.729Z,2.60
2019-01-04T00:51:56.211Z,2.70
2019-01-04T00:58:15.484Z,2.80
2019-01-04T01:01:41.641Z,2.80
2019-01-04T01:05:07.331Z,2.70
2019-01-04T01:08:21.464Z,2.80
2019-01-04T01:14:47.937Z,2.60
2019-01-04T01:18:03.786Z,2.70
2019-01-04T01:21:18.019Z,2.60
2019-01-04T01:24:30.194Z,2.60
2019-01-04T01:27:57.866Z,2.60
2019-01-04T01:31:20.058Z,2.60
2019-01-04T01:34:30.826Z,2.60
2019-01-04T01:37:32.480Z,2.50
2019-01-04T01:40:43.005Z,2.50
2019-01-04T01:44:06.564Z,2.50
2019-01-04T01:46:58.507Z,2.60
2019-01-04T01:50:32.071Z,2.60
2019-01-04T01:53:09.515Z,2.70
2019-01-04T01:55:38.387Z,2.70
2019-01-04T01:58:32.811Z,2.70
2019-01-04T02:01:11.024Z,2.70
2019-01-04T02:04:22.337Z,2.60
2019-01-04T02:07:03.901Z,2.60
2019-01-04T02:09:41.389Z,2.60
2019-01-04T02:12:32.101Z,2.60
2019-01-04T02:15:01.302Z,2.60
2019-01-04T02:17:35.383Z,2.50
2019-01-04T02:20:08.379Z,2.60
2019-01-04T02:22:48.654Z,2.70
2019-01-04T02:25:19.216Z,2.70
2019-01-04T02:27:57.560Z,2.70
2019-01-04T02:30:47.504Z,2.70
2019-01-04T02:33:41.735Z,2.70
2019-01-04T02:36:20.928Z,2.70
2019-01-04T02:38:52.317Z,2.70
2019-01-04T02:41:31.458Z,2.60
2019-01-04T02:44:05.960Z,2.70
2019-01-04T02:47:12.677Z,2.70
2019-01-04T02:49:55.471Z,2.70
2019-01-04T02:52:28.237Z,2.60
2019-01-04T02:56:07.030Z,2.70
2019-01-04T02:59:37.092Z,2.70
2019-01-04T03:02:14.824Z,2.70
2019-01-04T03:05:12.376Z,2.60
2019-01-04T03:07:47.532Z,2.70
2019-01-04T03:10:25.463Z,2.60
2019-01-04T03:12:52.031Z,2.60
2019-01-04T03:15:47.580Z,2.60
2019-01-04T03:18:13.796Z,2.70
2019-01-04T03:21:03.798Z,2.70
2019-01-04T03:23:54.293Z,2.70
2019-01-04T03:26:27.186Z,2.70
2019-01-04T03:28:59.235Z,2.70
2019-01-04T03:32:12.408Z,2.60
2019-01-04T03:35:01.709Z,2.60
2019-01-04T03:37:40.759Z,2.60
2019-01-04T03:40:14.241Z,2.60
2019-01-04T03:42:47.975Z,2.60
2019-01-04T03:45:20.619Z,2.60
2019-01-04T03:48:28.285Z,2.50
2019-01-04T03:51:03.773Z,2.60
2019-01-04T03:53:37.822Z,2.50
2019-01-04T03:56:27.897Z,2.50
2019-01-04T03:58:54.846Z,2.50
2019-01-04T04:01:32.937Z,2.40
2019-01-04T04:04:03.269Z,2.50
2019-01-04T04:06:35.857Z,2.50
2019-01-04T04:09:41.722Z,2.40
2019-01-04T04:12:23.681Z,2.40
2019-01-04T04:15:05.901Z,2.40
2019-01-04T04:17:53.717Z,2.50
2019-01-04T04:20:27.958Z,2.50
2019-01-04T04:23:55.270Z,2.50
2019-01-04T04:26:43.309Z,2.50
2019-01-04T04:29:18.072Z,2.50
2019-01-04T04:32:05.712Z,2.50
2019-01-04T04:35:01.106Z,2.50
2019-01-04T04:37:39.156Z,2.50
2019-01-04T04:40:20.846Z,2.50
2019-01-04T04:42:58.550Z,2.50
2019-01-04T04:45:42.691Z,2.50
2019-01-04T04:48:54.079Z,2.60
2019-01-04T04:51:28.581Z,2.60
2019-01-04T04:56:23.629Z,2.50
2019-01-04T05:01:19.336Z,2.50
2019-01-04T05:03:43.090Z,2.50
2019-01-04T05:06:13.216Z,2.50
2019-01-04T05:08:44.697Z,2.50
2019-01-04T05:11:32.282Z,2.50
2019-01-04T05:14:04.913Z,2.50
2019-01-04T05:16:38.686Z,2.40
2019-01-04T05:19:13.467Z,2.30
2019-01-04T05:21:48.090Z,2.40
2019-01-04T05:24:25.732Z,2.40
2019-01-04T05:27:18.381Z,2.40
2019-01-04T05:29:51.927Z,2.40
2019-01-04T05:32:33.144Z,2.40
2019-01-04T05:35:13.562Z,2.40
2019-01-04T05:37:53.073Z,2.40
2019-01-04T05:40:41.706Z,2.40
2019-01-04T05:43:22.705Z,2.40
2019-01-04T05:45:52.638Z,2.40
2019-01-04T05:48:45.246Z,2.40
2019-01-04T05:51:19.713Z,2.40
2019-01-04T05:53:56.272Z,2.40
2019-01-04T05:56:38.396Z,2.40
2019-01-04T05:59:10.537Z,2.40
2019-01-04T06:01:40.936Z,2.40
2019-01-04T06:04:25.700Z,2.40
2019-01-04T06:07:08.326Z,2.30
2019-01-04T06:09:43.592Z,2.30
2019-01-04T06:12:14.941Z,2.30
2019-01-04T06:14:45.151Z,2.40
2019-01-04T06:17:15.186Z,2.30
2019-01-04T06:19:45.477Z,2.30
2019-01-04T06:22:19.274Z,2.20
2019-01-04T06:24:49.432Z,2.20
2019-01-04T06:27:19.604Z,2.20
2019-01-04T06:29:53.237Z,2.10
2019-01-04T06:32:25.690Z,2.00
2019-01-04T06:35:07.480Z,1.90
2019-01-04T06:37:44.679Z,1.80
2019-01-04T06:40:43.928Z,1.70
2019-01-04T06:46:01.286Z,1.40
2019-01-04T06:48:34.607Z,1.30
2019-01-04T06:51:09.542Z,1.20
2019-01-04T06:53:55.839Z,1.10
2019-01-04T06:56:28.059Z,0.90
2019-01-04T07:02:13.688Z,0.60
2019-01-04T07:04:43.727Z,0.50
2019-01-04T07:07:41.113Z,0.40
2019-01-04T07:10:13.869Z,0.30
2019-01-04T07:12:53.825Z,0.30
2019-01-04T07:15:26.304Z,0.30
2019-01-04T07:18:05.865Z,0.10
2019-01-04T07:20:41.694Z,0.00
2019-01-04T07:23:14.013Z,-0.20
2019-01-04T07:25:52.009Z,-0.30
2019-01-04T07:28:49.851Z,-0.40
2019-01-04T07:31:33.396Z,-0.50
2019-01-04T07:34:18.876Z,-0.50
2019-01-04T07:36:56.189Z,-0.60
2019-01-04T07:39:41.457Z,-0.70
2019-01-04T07:42:55.852Z,-0.80
2019-01-04T07:45:35.768Z,-0.90
2019-01-04T07:48:19.130Z,-1.00
2019-01-04T07:50:49.615Z,-0.90
2019-01-04T07:53:33.808Z,-1.00
2019-01-04T07:56:08.597Z,-1.10
2019-01-04T07:58:40.927Z,-1.10
2019-01-04T08:01:18.542Z,-1.10
2019-01-04T08:03:58.723Z,-1.10
2019-01-04T08:06:30.578Z,-1.20
2019-01-04T08:09:05.924Z,-1.20
2019-01-04T08:12:00.462Z,-1.30
2019-01-04T08:14:23.044Z,-1.40
2019-01-04T08:16:54.981Z,-1.30
2019-01-04T08:19:26.823Z,-1.40
2019-01-04T08:22:06.400Z,-1.50
2019-01-04T08:24:57.917Z,-1.40
2019-01-04T08:27:51.815Z,-1.50
2019-01-04T08:30:32.600Z,-1.50
2019-01-04T08:33:03.327Z,-1.40
2019-01-04T08:36:02.187Z,-1.40
2019-01-04T08:38:44.925Z,-1.40
2019-01-04T08:41:16.369Z,-1.30
2019-01-04T08:43:46.382Z,-1.30
2019-01-04T08:46:19.983Z,-1.30
2019-01-04T08:48:55.697Z,-1.40
2019-01-04T08:51:32.914Z,-1.30
2019-01-04T08:54:08.537Z,-1.20
2019-01-04T08:56:48.825Z,-1.10
2019-01-04T08:59:16.803Z,-1.10
2019-01-04T09:01:55.694Z,-1.00
2019-01-04T09:04:32.902Z,-0.90
2019-01-04T09:07:05.109Z,-0.90
2019-01-04T09:09:39.569Z,-0.90
2019-01-04T09:12:14.805Z,-0.80
2019-01-04T09:15:01.352Z,-0.70
2019-01-04T09:17:54.519Z,-0.70
2019-01-04T09:20:33.903Z,-0.60
2019-01-04T09:23:04.472Z,-0.60
2019-01-04T09:25:38.278Z,-0.50
2019-01-04T09:28:10.340Z,-0.40
2019-01-04T09:30:40.462Z,-0.40
2019-01-04T09:33:17.410Z,-0.40
2019-01-04T09:35:51.460Z,-0.30
2019-01-04T09:38:24.932Z,-0.20
2019-01-04T09:44:23.226Z,0.00
2019-01-04T09:47:11.593Z,0.10
2019-01-04T09:49:44.331Z,0.30
2019-01-04T09:52:14.224Z,0.40
2019-01-04T09:55:05.342Z,0.60
2019-01-04T09:57:42.505Z,0.60
2019-01-04T10:00:21.942Z,0.60
2019-01-04T10:03:06.606Z,0.70
2019-01-04T10:05:23.878Z,1.10
2019-01-04T10:07:57.822Z,1.60
2019-01-04T10:10:30.991Z,2.10
2019-01-04T10:13:07.550Z,2.20
2019-01-04T10:15:41.980Z,2.40
2019-01-04T10:18:17.453Z,2.10
2019-01-04T10:20:50.823Z,1.90
2019-01-04T10:23:23.941Z,1.80
2019-01-04T10:26:07.956Z,1.70
2019-01-04T10:29:11.910Z,1.60
2019-01-04T10:31:47.930Z,1.60
2019-01-04T10:34:19.304Z,1.50
2019-01-04T10:36:56.671Z,1.40
2019-01-04T10:39:26.241Z,1.40
2019-01-04T10:42:05.448Z,1.30
2019-01-04T10:44:37.883Z,1.30
2019-01-04T10:47:19.103Z,1.30
2019-01-04T10:49:57.334Z,1.50
2019-01-04T10:52:30.754Z,1.50
2019-01-04T10:55:06.005Z,1.60
2019-01-04T10:58:06.020Z,1.70
2019-01-04T11:01:03.788Z,1.60
2019-01-04T11:03:42.590Z,1.60
2019-01-04T11:06:15.556Z,1.60
2019-01-04T11:08:47.353Z,1.70
2019-01-04T11:11:27.374Z,1.90
2019-01-04T11:14:02.115Z,2.00
2019-01-04T11:16:34.822Z,2.00
2019-01-04T11:19:29.431Z,2.00
2019-01-04T11:22:43.018Z,2.10
2019-01-04T11:26:05.131Z,2.10
2019-01-04T11:29:05.384Z,2.20
2019-01-04T11:32:28.218Z,2.20
2019-01-04T11:35:35.704Z,2.30
2019-01-04T11:38:52.753Z,2.40
2019-01-04T11:42:19.897Z,2.50
2019-01-04T11:45:44.432Z,2.40
2019-01-04T11:48:31.726Z,2.40
2019-01-04T11:51:44.703Z,2.70
2019-01-04T11:54:33.812Z,2.60
2019-01-04T11:57:11.444Z,2.60
2019-01-04T11:59:43.735Z,2.60
2019-01-04T12:02:56.623Z,2.80
2019-01-04T12:05:43.995Z,2.90
2019-01-04T12:08:19.372Z,2.70
2019-01-04T12:10:51.322Z,2.80
2019-01-04T12:13:31.490Z,2.80
2019-01-04T12:16:01.597Z,2.90
2019-01-04T12:18:39.917Z,3.00
2019-01-04T12:21:10.348Z,3.00
2019-01-04T12:23:46.784Z,3.10
2019-01-04T12:26:26.983Z,3.50
2019-01-04T12:28:58.124Z,3.70
2019-01-04T12:31:35.422Z,3.60
2019-01-04T12:34:07.616Z,3.40
2019-01-04T12:36:39.025Z,3.30
2019-01-04T12:39:18.065Z,3.50
2019-01-04T12:42:15.435Z,3.40
2019-01-04T12:44:33.259Z,3.30
2019-01-04T12:47:08.177Z,3.40
2019-01-04T12:49:38.459Z,3.30
2019-01-04T12:52:16.343Z,3.30
2019-01-04T12:54:48.195Z,3.30
2019-01-04T12:57:23.297Z,3.30
2019-01-04T12:59:55.982Z,3.30
2019-01-04T13:02:28.992Z,3.30
2019-01-04T13:04:59.240Z,3.30
2019-01-04T13:07:41.178Z,3.30
2019-01-04T13:10:26.712Z,3.30
2019-01-04T13:13:04.515Z,3.30
2019-01-04T13:15:35.860Z,3.40
2019-01-04T13:18:08.585Z,3.40
2019-01-04T13:20:45.671Z,3.40
2019-01-04T13:23:18.655Z,3.50
2019-01-04T13:25:56.531Z,3.70
2019-01-04T13:28:28.793Z,3.50
2019-01-04T13:31:05.354Z,3.30
2019-01-04T13:33:30.959Z,3.40
2019-01-04T13:36:09.128Z,3.40
2019-01-04T13:38:39.210Z,3.30
2019-01-04T13:41:11.566Z,3.40
2019-01-04T13:43:49.836Z,3.30
2019-01-04T13:46:36.086Z,3.40
2019-01-04T13:49:13.268Z,3.30
2019-01-04T13:51:45.410Z,3.30
2019-01-04T13:54:51.855Z,3.30
2019-01-04T13:57:11.629Z,3.20
2019-01-04T13:59:41.822Z,3.10
2019-01-04T14:02:19.296Z,3.10
2019-01-04T14:05:01.520Z,3.10
2019-01-04T14:07:40.623Z,2.90
2019-01-04T14:10:33.639Z,2.90
2019-01-04T14:13:09.341Z,2.90
2019-01-04T14:15:47.747Z,2.90
2019-01-04T14:18:25.037Z,2.80
2019-01-04T14:21:00.684Z,2.80
2019-01-04T14:23:35.211Z,2.80
2019-01-04T14:26:12.834Z,2.80
2019-01-04T14:28:45.276Z,2.70
2019-01-04T14:31:19.860Z,2.70
2019-01-04T14:33:54.892Z,2.70
2019-01-04T14:36:35.417Z,2.60
2019-01-04T14:39:13.922Z,2.70
2019-01-04T14:41:46.046Z,2.50
2019-01-04T14:44:22.436Z,2.60
2019-01-04T14:46:55.753Z,2.70
2019-01-04T14:49:53.933Z,2.70
2019-01-04T14:52:27.437Z,2.60
2019-01-04T14:55:09.570Z,2.50
2019-01-04T14:57:48.262Z,2.40
2019-01-04T15:00:25.554Z,2.40
2019-01-04T15:03:01.039Z,2.40
2019-01-04T15:05:50.312Z,2.30
2019-01-04T15:08:11.062Z,2.30
2019-01-04T15:10:41.371Z,2.30
2019-01-04T15:13:13.153Z,2.40
2019-01-04T15:15:50.931Z,2.30
2019-01-04T15:18:28.932Z,2.30
2019-01-04T15:21:27.865Z,2.30
2019-01-04T15:23:56.806Z,2.20
2019-01-04T15:26:33.211Z,2.10
2019-01-04T15:29:10.613Z,2.10
2019-01-04T15:31:40.272Z,2.10
2019-01-04T15:34:23.092Z,2.10
2019-01-04T15:36:56.729Z,1.90
2019-01-04T15:39:26.766Z,1.80
2019-01-04T15:42:00.958Z,1.80
2019-01-04T15:44:38.603Z,1.70
2019-01-04T15:47:09.079Z,1.70
2019-01-04T15:49:51.987Z,1.70
2019-01-04T15:52:23.703Z,1.60
2019-01-04T15:55:05.832Z,1.60
2019-01-04T15:57:37.077Z,1.40
2019-01-04T16:00:26.040Z,1.30
2019-01-04T16:02:56.138Z,1.30
2019-01-04T16:05:32.539Z,1.20
2019-01-04T16:08:02.762Z,1.00
2019-01-04T16:10:43.648Z,1.00
2019-01-04T16:13:16.313Z,0.90
2019-01-04T16:15:51.593Z,0.90
2019-01-04T16:18:24.436Z,0.70
2019-01-04T16:21:13.056Z,0.70
2019-01-04T16:24:01.445Z,0.50
2019-01-04T16:26:41.095Z,0.60
2019-01-04T16:29:32.592Z,0.50
2019-01-04T16:32:07.442Z,0.30
2019-01-04T16:34:46.072Z,0.00
2019-01-04T16:37:16.651Z,0.00
2019-01-04T16:39:53.871Z,-0.20
2019-01-04T16:42:43.043Z,-0.40
2019-01-04T16:45:15.094Z,-0.40
2019-01-04T16:47:50.661Z,-0.50
2019-01-04T16:50:24.994Z,-0.60
2019-01-04T16:52:59.567Z,-0.60
2019-01-04T16:55:28.418Z,-0.80
2019-01-04T16:58:08.033Z,-0.90
2019-01-04T17:00:42.314Z,-0.90
2019-01-04T17:03:17.077Z,-1.00
2019-01-04T17:05:50.815Z,-1.00
2019-01-04T17:08:23.836Z,-1.00
2019-01-04T17:11:23.240Z,-1.00
2019-01-04T17:13:59.859Z,-1.10
2019-01-04T17:16:41.238Z,-1.10
2019-01-04T17:19:16.213Z,-1.10
2019-01-04T17:22:17.779Z,-1.20
2019-01-04T17:24:43.875Z,-1.20
2019-01-04T17:27:29.641Z,-1.30
2019-01-04T17:29:59.721Z,-1.30
2019-01-04T17:32:36.859Z,-1.40
2019-01-04T17:35:10.484Z,-1.40
2019-01-04T17:37:44.300Z,-1.20
2019-01-04T17:40:15.023Z,-1.20
2019-01-04T17:43:01.382Z,-1.10
2019-01-04T17:45:41.311Z,-1.00
2019-01-04T17:48:29.714Z,-1.10
2019-01-04T17:51:06.971Z,-1.10
2019-01-04T17:53:40.156Z,-1.10
2019-01-04T17:56:14.124Z,-1.10
2019-01-04T17:58:55.075Z,-0.90
2019-01-04T18:01:32.514Z,-0.90
2019-01-04T18:04:18.524Z,-0.90
2019-01-04T18:06:52.730Z,-0.80
2019-01-04T18:09:22.944Z,-0.80
2019-01-04T18:12:06.013Z,-0.70
2019-01-04T18:14:43.393Z,-0.60
2019-01-04T18:17:11.253Z,-0.60
2019-01-04T18:20:30.853Z,-0.50
2019-01-04T18:22:46.408Z,-0.30
2019-01-04T18:25:46.633Z,-0.20
2019-01-04T18:28:21.804Z,-0.20
2019-01-04T18:30:56.224Z,-0.20
2019-01-04T18:33:28.547Z,-0.10
2019-01-04T18:36:08.499Z,-0.10
2019-01-04T18:38:40.762Z,-0.10
2019-01-04T18:41:30.232Z,-0.10
2019-01-04T18:44:04.482Z,0.10
2019-01-04T18:47:11.946Z,0.10
2019-01-04T18:49:41.862Z,0.10
2019-01-04T18:52:37.404Z,0.10
2019-01-04T18:55:15.625Z,0.10
2019-01-04T18:58:05.371Z,0.20
2019-01-04T19:01:43.072Z,0.20
2019-01-04T19:04:13.293Z,0.30
2019-01-04T19:06:46.611Z,0.30
2019-01-04T19:09:18.036Z,0.30
2019-01-04T19:12:12.118Z,0.30
2019-01-04T19:14:50.537Z,0.40
2019-01-04T19:17:36.843Z,0.40
2019-01-04T19:20:10.227Z,0.50
2019-01-04T19:22:43.270Z,0.60
2019-01-04T19:25:13.273Z,0.50
2019-01-04T19:27:47.693Z,0.50
2019-01-04T19:30:23.972Z,0.60
2019-01-04T19:33:01.042Z,0.50
2019-01-04T19:35:34.750Z,0.60
2019-01-04T19:38:16.448Z,0.70
2019-01-04T19:40:42.213Z,0.70
2019-01-04T19:43:25.716Z,0.70
2019-01-04T19:45:57.465Z,0.70
2019-01-04T19:48:29.166Z,0.70
2019-01-04T19:51:01.681Z,0.70
2019-01-04T19:53:33.513Z,0.80
2019-01-04T19:56:06.801Z,0.80
2019-01-04T19:58:47.362Z,0.80
2019-01-04T20:01:14.529Z,0.80
2019-01-04T20:03:53.956Z,0.90
2019-01-04T20:07:16.811Z,0.90
2019-01-04T20:10:45.215Z,0.90
2019-01-04T20:14:25.218Z,0.80
2019-01-04T20:17:25.179Z,0.80
2019-01-04T20:20:25.149Z,0.90
2019-01-04T20:23:36.546Z,1.00
2019-01-04T20:26:23.403Z,1.00
2019-01-04T20:29:13.884Z,1.00
2019-01-04T20:32:04.657Z,1.00
2019-01-04T20:34:59.318Z,1.00
2019-01-04T20:37:49.496Z,1.10
2019-01-04T20:40:36.901Z,1.10
2019-01-04T20:43:38.291Z,1.10
2019-01-04T20:46:38.918Z,1.10
2019-01-04T20:49:27.417Z,1.10
2019-01-04T20:52:35.870Z,1.10
2019-01-04T20:55:35.420Z,1.20
2019-01-04T20:58:39.339Z,1.10
2019-01-04T21:01:19.544Z,1.20
2019-01-04T21:04:30.055Z,1.30
2019-01-04T21:07:33.003Z,1.20
2019-01-04T21:10:31.182Z,1.20
2019-01-04T21:13:46.669Z,1.30
2019-01-04T21:16:53.341Z,1.30
2019-01-04T21:19:40.838Z,1.30
2019-01-04T21:22:39.674Z,1.30
2019-01-04T21:25:36.611Z,1.40
2019-01-04T21:28:35.223Z,1.30
2019-01-04T21:31:42.114Z,1.40
2019-01-04T21:35:07.723Z,1.40
2019-01-04T21:40:03.281Z,1.50
2019-01-04T21:41:07.984Z,1.50
2019-01-04T21:44:14.734Z,1.50
2019-01-04T21:47:06.687Z,1.60
2019-01-04T21:50:13.640Z,1.60
2019-01-04T21:53:00.965Z,1.60
2019-01-04T21:55:59.044Z,1.60
2019-01-04T21:59:08.083Z,1.50
2019-01-04T22:02:10.867Z,1.50
2019-01-04T22:05:21.045Z,1.60
2019-01-04T22:08:06.980Z,1.60
2019-01-04T22:11:15.765Z,1.60
2019-01-04T22:14:04.297Z,1.70
2019-01-04T22:17:09.430Z,1.60
2019-01-04T22:20:08.626Z,1.70
2019-01-04T22:22:53.604Z,1.70
2019-01-04T22:25:52.912Z,1.80
2019-01-04T22:29:09.639Z,1.80
2019-01-04T22:32:20.086Z,1.80
2019-01-04T22:35:06.180Z,1.80
2019-01-04T22:38:00.898Z,1.80
2019-01-04T22:40:53.360Z,1.80
2019-01-04T22:43:58.117Z,1.80
2019-01-04T22:50:21.362Z,1.80
2019-01-04T22:53:17.582Z,1.90
2019-01-04T22:56:28.995Z,1.80
2019-01-04T22:59:40.091Z,1.80
2019-01-04T23:02:29.343Z,1.90
2019-01-04T23:05:47.361Z,1.90
2019-01-04T23:12:28.066Z,2.00
2019-01-04T23:15:47.330Z,1.90
2019-01-04T23:18:35.268Z,1.90
2019-01-04T23:22:32.426Z,1.90
2019-01-04T23:25:35.672Z,2.00
2019-01-04T23:28:34.733Z,2.00
2019-01-04T23:31:37.702Z,2.00
2019-01-04T23:34:35.694Z,1.90
2019-01-04T23:37:24.954Z,2.00
2019-01-04T23:40:17.028Z,2.10
2019-01-04T23:43:10.205Z,2.10
2019-01-04T23:46:27.272Z,2.10
2019-01-04T23:49:29.641Z,2.00
2019-01-04T23:52:28.444Z,2.00
2019-01-04T23:55:37.455Z,2.00
2019-01-04T23:59:12.938Z,2.00
